Flight Track Log - Related Links

Times and Time Zones

All times are in EDT time to prevent confusion due to time zone crossing. See the EJA922 flight status page for this flight to view local times or setup timezone preferences in your user account.

Time Position Orientation Groundspeed Altitude Reporting Facility
EDT Latitude Longitude Course Direction KTS MPH feet Rate Location/Type
Wed 07:37:46 PM 39.6500 -104.8833 79° East 267 307 8,000  Level Denver TRACON
Wed 07:38:46 PM 39.7167 -104.9333 330° Northwest 297 342 10,500 2,650 Climbing Denver TRACON
Wed 07:39:46 PM 39.8000 -104.9167 North 325 374 13,300 2,933 Climbing Denver TRACON
Wed 07:40:16 PM 39.8481 -104.8847 27° Northeast 339 390 14,900 2,774 Climbing Denver Center
Wed 07:41:19 PM 39.8797 -104.7564 72° East 371 427 17,600 2,400 Climbing Denver Center
Wed 07:42:21 PM 39.9000 -104.6156 79° East 385 443 19,900 2,081 Climbing Denver Center
Wed 07:43:00 PM 39.8295 -103.7458 79° East  Level Estimated
Wed 07:43:23 PM 39.9203 -104.4736 79° East 399 459 21,900  Level Denver Center
Wed 07:44:25 PM 39.9411 -104.3269 79° East 400 460 24,100 2,274 Climbing Denver Center
Wed 07:45:27 PM 39.9614 -104.1831 80° East 401 461 26,600 1,935 Climbing Denver Center
Wed 07:46:29 PM 39.9822 -104.0361 79° East 413 475 28,100 1,113 Climbing Denver Center
Wed 07:47:31 PM 40.0047 -103.8775 79° East 445 512 28,900 823 Climbing Denver Center
Wed 07:48:33 PM 40.0367 -103.6683 79° East 492 566 29,800 871 Climbing Denver Center
Wed 07:49:35 PM 40.0683 -103.4764 78° East 539 620 30,700 1,161 Climbing Denver Center
Wed 07:50:37 PM 40.0997 -103.2792 78° East 555 639 32,200 1,597 Climbing Denver Center
Wed 07:51:39 PM 40.1325 -103.0831 78° East 555 639 34,000 1,355 Climbing Denver Center
Wed 07:52:41 PM 40.1631 -102.8853 79° East 556 640 35,000 1,210 Climbing Denver Center
Wed 07:53:43 PM 40.1978 -102.6669 78° East 567 652 36,500 1,694 Climbing Denver Center
Wed 07:54:45 PM 40.2311 -102.4469 79° East 555 639 38,500 1,452 Climbing Denver Center
Wed 07:55:47 PM 40.2600 -102.2603 78° East 547 629 39,500 1,210 Climbing Denver Center
Wed 07:56:49 PM 40.3119 -102.0447 72° East 556 640 41,000 726 Climbing Denver Center
Wed 07:57:51 PM 40.3628 -101.8636 70° East 555 639 41,000  Level Denver Center
Wed 07:58:54 PM 40.4239 -101.6433 70° East 576 663 41,000  Level Denver Center
Wed 07:59:56 PM 40.4747 -101.4511 71° East 582 670 41,000  Level Denver Center
Wed 08:00:58 PM 40.5342 -101.2261 71° East 584 672 41,000  Level Denver Center
Wed 08:02:00 PM 40.5847 -101.0339 71° East 584 672 41,000  Level Denver Center
Wed 08:03:02 PM 40.6428 -100.8094 71° East 586 674 41,000  Level Denver Center
Wed 08:04:04 PM 40.6931 -100.6186 71° East 589 678 41,000  Level Denver Center
Wed 08:05:06 PM 40.7511 -100.3942 71° East 589 678 41,000  Level Denver Center
Wed 08:06:08 PM 40.8003 -100.1997 71° East 588 677 41,000  Level Denver Center
Wed 08:07:10 PM 40.8592 -99.9717 71° East 590 679 41,000  Level Denver Center
Wed 08:08:12 PM 40.9092 -99.7733 71° East 592 681 41,000  Level Denver Center
Wed 08:09:14 PM 40.9614 -99.5647 72° East 596 686 41,000  Level Denver Center
Wed 08:10:16 PM 41.0131 -99.3542 72° East 600 690 41,000  Level Denver Center
Wed 08:11:18 PM 41.0750 -99.0997 72° East 603 694 41,000  Level Denver Center
Wed 08:12:20 PM 41.1225 -98.9011 72° East 602 693 41,000  Level Denver Center
Wed 08:13:22 PM 41.1797 -98.6656 72° East 603 694 41,000  Level Denver Center
Wed 08:14:24 PM 41.2222 -98.4850 73° East 604 695 41,000  Level Denver Center
Wed 08:15:51 PM 41.3019 -98.1447 73° East 603 694 41,000  Level Minneapolis Center
Wed 08:16:53 PM 41.3492 -97.9417 73° East 602 693 41,000  Level Minneapolis Center
Wed 08:17:55 PM 41.3986 -97.7286 73° East 603 694 41,000  Level Minneapolis Center
Wed 08:18:57 PM 41.4456 -97.5183 73° East 596 686 41,000  Level Minneapolis Center
Wed 08:19:59 PM 41.5047 -97.2589 73° East 604 695 41,000  Level Minneapolis Center
Wed 08:21:01 PM 41.5514 -97.0442 74° East 602 693 41,000  Level Minneapolis Center
Wed 08:22:04 PM 41.6003 -96.8281 73° East 604 695 41,000  Level Minneapolis Center
Wed 08:23:06 PM 41.6472 -96.6114 74° East 604 695 41,000  Level Minneapolis Center
Wed 08:24:08 PM 41.6950 -96.3933 74° East 605 696 41,000  Level Minneapolis Center
Wed 08:25:10 PM 41.7417 -96.1742 74° East 607 699 41,000  Level Minneapolis Center
Wed 08:26:12 PM 41.7886 -95.9533 74° East 608 700 41,000  Level Minneapolis Center
Wed 08:27:14 PM 41.8339 -95.7339 74° East 607 699 41,000  Level Minneapolis Center
Wed 08:28:16 PM 41.8881 -95.4706 74° East 608 700 41,000  Level Minneapolis Center
Wed 08:29:18 PM 41.9328 -95.2519 75° East 607 699 41,000  Level Minneapolis Center
Wed 08:30:20 PM 41.9775 -95.0308 75° East 611 703 41,000  Level Minneapolis Center
Wed 08:31:22 PM 42.0203 -94.8094 75° East 612 704 41,000  Level Minneapolis Center
Wed 08:32:24 PM 42.0642 -94.5894 75° East 610 702 41,000  Level Minneapolis Center
Wed 08:33:27 PM 42.1075 -94.3661 75° East 616 709 41,000  Level Minneapolis Center
Wed 08:34:29 PM 42.1511 -94.1447 75° East 615 708 41,000  Level Minneapolis Center
Wed 08:35:31 PM 42.2028 -93.8772 75° East 615 708 41,000  Level Minneapolis Center
Wed 08:36:33 PM 42.2436 -93.6644 75° East 616 709 41,000  Level Minneapolis Center
Wed 08:37:35 PM 42.2844 -93.4408 76° East 620 713 41,000  Level Minneapolis Center
Wed 08:38:37 PM 42.3250 -93.2175 76° East 619 712 41,000  Level Minneapolis Center
Wed 08:39:12 PM 42.3514 -93.0814 75° East 620 713 41,000  Level Chicago Center
Wed 08:40:14 PM 42.4000 -92.8117 76° East 621 715 41,000  Level Chicago Center
Wed 08:41:16 PM 42.4406 -92.5892 76° East 616 709 41,000  Level Chicago Center
Wed 08:42:18 PM 42.4792 -92.3675 77° East 613 705 41,000  Level Chicago Center
Wed 08:43:20 PM 42.5178 -92.1458 77° East 612 704 41,000  Level Chicago Center
Wed 08:44:22 PM 42.5561 -91.9247 77° East 611 703 41,000  Level Chicago Center
Wed 08:45:24 PM 42.6006 -91.6586 77° East 618 711 41,000  Level Chicago Center
Wed 08:46:26 PM 42.6386 -91.4372 77° East 622 716 41,000  Level Chicago Center
Wed 08:47:29 PM 42.6758 -91.2147 77° East 621 715 41,000  Level Chicago Center
Wed 08:48:31 PM 42.7197 -90.9422 78° East 623 717 41,000  Level Chicago Center
Wed 08:49:33 PM 42.7572 -90.7142 77° East 625 719 41,000  Level Chicago Center
Wed 08:50:35 PM 42.7925 -90.4844 78° East 626 720 41,000  Level Chicago Center
Wed 08:51:37 PM 42.8292 -90.2564 78° East 625 719 41,000  Level Chicago Center
Wed 08:52:39 PM 42.8636 -90.0264 78° East 624 718 41,000  Level Chicago Center
Wed 08:53:41 PM 42.9044 -89.7536 78° East 623 717 41,000  Level Chicago Center
Wed 08:54:43 PM 42.9389 -89.5256 78° East 618 711 41,000  Level Chicago Center
Wed 08:55:45 PM 42.9733 -89.2944 78° East 622 716 41,000  Level Chicago Center
Wed 08:56:47 PM 43.0069 -89.0636 79° East 624 718 41,000  Level Chicago Center
Wed 08:57:49 PM 43.0458 -88.7861 79° East 625 719 41,000  Level Chicago Center
Wed 08:58:54 PM 43.0783 -88.5564 79° East 626 720 41,000  Level Chicago Center
Wed 08:59:56 PM 43.1092 -88.3247 80° East 629 724 41,000  Level Chicago Center
Wed 09:00:58 PM 43.1275 -88.0486 85° East 618 711 41,000  Level Chicago Center
Wed 09:02:00 PM 43.1378 -87.8178 86° East 613 705 41,000  Level Chicago Center
Wed 09:03:02 PM 43.1489 -87.5833 86° East 620 713 41,000  Level Chicago Center
Wed 09:04:04 PM 43.1597 -87.3289 87° East 624 718 41,000  Level Chicago Center
Wed 09:05:05 PM 43.1697 -87.0939 87° East 621 715 41,000  Level Chicago Center
Wed 09:06:07 PM 43.1778 -86.8589 87° East 618 711 41,000  Level Chicago Center
Wed 09:07:09 PM 43.1869 -86.6214 87° East 624 718 41,000  Level Chicago Center
Wed 09:08:11 PM 43.1950 -86.3839 87° East 623 717 41,000  Level Chicago Center
Wed 09:09:13 PM 43.2031 -86.1422 87° East 627 722 41,000  Level Chicago Center
Wed 09:10:15 PM 43.2106 -85.8961 88° East 628 723 41,000  Level Chicago Center
Wed 09:11:17 PM 43.2167 -85.6531 88° East 628 723 41,000  Level Chicago Center
Wed 09:12:19 PM 43.2222 -85.4153 88° East 625 719 41,000  Level Chicago Center
Wed 09:13:21 PM 43.2283 -85.1294 88° East 625 719 41,000  Level Chicago Center
Wed 09:14:22 PM 43.2353 -84.8919 88° East 623 717 41,000  Level Chicago Center
Wed 09:15:24 PM 43.2392 -84.6544 89° East 625 719 41,000  Level Chicago Center
Wed 09:16:26 PM 43.2436 -84.4158 88° East 626 720 41,000  Level Chicago Center
Wed 09:17:15 PM 43.2436 -84.2233 90° East 626 720 41,000  Level Cleveland Center
Wed 09:18:16 PM 43.2475 -83.9867 89° East 625 719 41,000  Level Cleveland Center
Wed 09:19:18 PM 43.2489 -83.7133 90° East 625 719 41,000  Level Cleveland Center
Wed 09:20:20 PM 43.2519 -83.4775 89° East 620 713 41,000  Level Cleveland Center
Wed 09:21:21 PM 43.2531 -83.2389 90° East 623 717 41,000  Level Cleveland Center
Wed 09:22:23 PM 43.2533 -83.0042 90° East 617 710 41,000  Level Cleveland Center
Wed 09:23:25 PM 43.2522 -82.7683 90° East 617 710 41,000  Level Cleveland Center
Wed 09:24:26 PM 43.2294 -82.5306 97° East 626 720 41,000  Level Cleveland Center
Wed 09:25:18 PM 43.1833 -82.3000 105° East 620 713 41,000  Level Toronto Center
Wed 09:26:18 PM 43.1500 -82.0500 100° East 620 713 41,000  Level Toronto Center
Wed 09:27:18 PM 43.1333 -81.8333 96° East 620 713 41,000  Level Toronto Center
Wed 09:28:18 PM 43.1000 -81.6000 101° East 620 713 41,000  Level Toronto Center
Wed 09:29:18 PM 43.0500 -81.3667 106° East 620 713 41,000  Level Toronto Center
Wed 09:30:18 PM 43.0167 -81.1333 101° East 620 713 41,000  Level Toronto Center
Wed 09:31:18 PM 43.0167 -80.8833 90° East 620 713 41,000  Level Toronto Center
Wed 09:32:18 PM 43.0167 -80.6667 90° East 620 713 41,000  Level Toronto Center
Wed 09:33:18 PM 43.0000 -80.4333 95° East 620 713 41,000  Level Toronto Center
Wed 09:34:18 PM 43.0000 -80.2000 90° East 610 702 41,000  Level Toronto Center
Wed 09:35:18 PM 42.9833 -79.9500 95° East 610 702 41,000  Level Toronto Center
Wed 09:36:18 PM 42.9667 -79.7500 96° East 600 690 41,000  Level Toronto Center
Wed 09:37:18 PM 42.9667 -79.5000 90° East 600 690 41,000  Level Toronto Center
Wed 09:38:18 PM 42.9500 -79.2667 95° East 600 690 41,000  Level Toronto Center
Wed 09:39:18 PM 42.9500 -79.0667 90° East 590 679 41,000  Level Toronto Center
Wed 09:40:18 PM 42.9333 -78.8333 95° East 590 679 41,000  Level Toronto Center
Wed 09:41:03 PM 42.9308 -78.6856 91° East 589 678 41,000  Level Cleveland Center
Wed 09:42:05 PM 42.9247 -78.4631 92° East 588 677 41,000  Level Cleveland Center
Wed 09:43:06 PM 42.9194 -78.2425 92° East 584 672 41,000  Level Cleveland Center
Wed 09:44:08 PM 42.9147 -78.0197 92° East 585 673 41,000  Level Cleveland Center
Wed 09:45:09 PM 42.9097 -77.8008 92° East 570 656 41,000  Level Cleveland Center
Wed 09:46:11 PM 42.9053 -77.5925 92° East 547 629 41,000  Level Cleveland Center
Wed 09:47:12 PM 42.8992 -77.3753 92° East 560 644 41,000  Level Cleveland Center
Wed 09:48:14 PM 42.8936 -77.1575 92° East 569 655 41,000  Level Cleveland Center
Wed 09:49:15 PM 42.8872 -76.9422 92° East 568 654 41,000  Level Cleveland Center
Wed 09:50:17 PM 42.8806 -76.7278 92° East 566 651 41,000  Level Cleveland Center
Wed 09:51:02 PM 42.8744 -76.5628 93° East 565 650 41,000  Level Boston Center
Wed 09:52:03 PM 42.8686 -76.3497 92° East 568 654 41,000  Level Boston Center
Wed 09:53:04 PM 42.8611 -76.1367 93° East 568 654 41,000  Level Boston Center
Wed 09:54:04 PM 42.8519 -75.9222 93° East 570 656 41,000  Level Boston Center
Wed 09:55:05 PM 42.8436 -75.7058 93° East 574 661 41,000 -198 Level Boston Center
Wed 09:56:05 PM 42.8333 -75.4919 94° East 574 661 40,600 -984 Descending Boston Center
Wed 09:57:07 PM 42.8225 -75.2389 93° East 567 652 39,000 -1,488 Descending Boston Center
Wed 09:58:06 PM 42.8111 -75.0200 94° East 586 674 37,600 -1,008 Descending Boston Center
Wed 09:59:06 PM 42.8014 -74.8025 93° East 582 670 37,000 -290 Descending Boston Center
Wed 10:00:10 PM 42.7892 -74.5864 94° East 580 667 37,000  Level Boston Center
Wed 10:01:11 PM 42.7767 -74.3656 94° East 583 671 37,000  Level Boston Center
Wed 10:02:11 PM 42.7647 -74.1453 94° East 585 673 37,000  Level Boston Center
Wed 10:03:10 PM 42.7544 -73.9239 94° East 590 679 37,000 -800 Level Boston Center
Wed 10:04:11 PM 42.7389 -73.7106 96° East 575 662 35,400 -1,887 Descending Boston Center
Wed 10:05:14 PM 42.7161 -73.5047 98° East 557 641 33,100 -2,177 Descending Boston Center
Wed 10:06:15 PM 42.6950 -73.3053 98° East 540 621 30,900 -2,066 Descending Boston Center
Wed 10:07:16 PM 42.6739 -73.1136 98° East 515 593 28,900 -1,967 Descending Boston Center
Wed 10:08:17 PM 42.6539 -72.9278 98° East 499 574 26,900 -1,967 Descending Boston Center
Wed 10:09:18 PM 42.6325 -72.7472 99° East 480 552 24,900 -1,884 Descending Boston Center
Wed 10:10:18 PM 42.6106 -72.5694 99° East 470 541 23,100 -1,613 Descending Boston Center
Wed 10:11:17 PM 42.5864 -72.3756 100° East 442 509 21,700 -1,736 Descending Boston Center
Wed 10:12:19 PM 42.5692 -72.2314 99° East 452 520 19,600 -2,164 Descending Boston Center
Wed 10:13:19 PM 42.5458 -72.0444 100° East 419 482 17,300 -2,293 Descending Boston Center
Wed 10:14:22 PM 42.5322 -71.8933 97° East 408 470 14,900 -2,226 Descending Boston Center
Wed 10:15:23 PM 42.5186 -71.7414 97° East 408 470 12,700 -1,983 Descending Boston Center
Wed 10:16:23 PM 42.5039 -71.5903 97° East 377 434 10,900 -1,714 Descending Boston Center
Wed 10:17:22 PM 42.5000 -71.4667 92° East 296 341 9,300 -1,109 Descending KA90
Wed 10:18:22 PM 42.4833 -71.3667 103° East 267 307 8,700 -900 Descending KA90
Wed 10:19:22 PM 42.4667 -71.2833 105° East 257 296 7,500 -1,050 Descending KA90
Wed 10:20:22 PM 42.4667 -71.1833 90° East 241 277 6,600 -750 Descending KA90
Wed 10:21:22 PM 42.4833 -71.1167 71° East 218 251 6,000 -600 Descending KA90
Wed 10:22:22 PM 42.5500 -71.0667 29° Northeast 205 236 5,400 -800 Descending KA90
Wed 10:23:22 PM 42.6000 -71.0333 26° Northeast 202 232 4,400 -700 Descending KA90
Wed 10:24:22 PM 42.6000 -70.9667 90° East 222 255 4,000 -248 Descending KA90
Wed 10:25:23 PM 42.5667 -70.9000 124° Southeast 187 215 3,900 -283 Descending KA90
Wed 10:26:29 PM 42.5333 -70.9333 216° Southwest 156 180 3,400 -667 Descending KA90
Wed 10:27:29 PM 42.4833 -70.9500 194° South 156 180 2,500 -789 Descending KA90
Wed 10:28:23 PM 42.4500 -70.9667 200° South 139 160 1,900 -737 Descending KA90
Wed 10:29:23 PM 42.4167 -70.9833 200° South 126 145 1,100 -789 Descending KA90
Wed 10:30:17 PM 42.3833 -70.9833 180° South 127 146 400 -778 Descending KA90
Wed 10:33:00 PM 42.3630 -71.0064 North  Level Estimated

Login

Don't have an account? Register now (free) for customized features, flight alerts, and more!